Terminal Aerodrome Forecast
Issued by NWS

Home | Current Version | Previous Version | Text Only | Print | Product List | Glossary On
Versions: 1 2 3 4 5 6 7 8 9 10 11 12 13 14
302
FTUS41 KPBZ 260521
TAFDUJ
TAF
KDUJ 260521Z 2606/2706 11006KT P6SM BKN250
     FM261000 12006KT P6SM SCT015 BKN200
      TEMPO 2610/2613 BKN015
     FM261700 16010KT P6SM VCTS BKN050CB
     FM262000 16011KT 6SM -SHRA VCTS OVC050CB
     FM270100 25007KT P6SM VCSH BKN015=

USA.gov is the U.S. government's official web portal to all federal, state and local government web resources and services.